Time;durP1;ratioP1;P1;durP2;ratioP2;P2;SDS_P1;SDS_P2;PMS_P1;PMS_P2;Temp;Humidity;BMP_temperature;BMP_pressure;BME280_temperature;BME280_humidity;BME280_pressure;Samples;Min_cycle;Max_cycle;Signal;HPM_P1;HPM_P2
2023/05/08 00:00:59;;;;;;;9.00;6.00;;;12.90;99.90;;;;;;7400566;19;19926;-65
2023/05/08 00:03:28;;;;;;;8.25;5.90;;;12.90;99.90;;;;;;7402467;19;20315;-65
2023/05/08 00:05:57;;;;;;;7.35;5.85;;;12.80;99.90;;;;;;7400766;19;19949;-65
2023/05/08 00:08:26;;;;;;;9.05;6.30;;;12.90;99.90;;;;;;7399833;19;19929;-65
2023/05/08 00:10:58;;;;;;;7.80;5.38;;;12.90;99.90;;;;;;7401488;19;19941;-65
2023/05/08 00:13:26;;;;;;;10.13;6.35;;;12.90;99.90;;;;;;7400556;19;20667;-65
2023/05/08 00:15:55;;;;;;;7.70;5.70;;;12.90;99.90;;;;;;7401832;19;19915;-66
2023/05/08 00:18:25;;;;;;;8.40;6.38;;;12.70;99.90;;;;;;7401552;19;19923;-66
2023/05/08 00:20:55;;;;;;;8.70;5.70;;;12.80;99.90;;;;;;7399187;19;19933;-65
2023/05/08 00:23:24;;;;;;;7.18;5.75;;;12.70;99.90;;;;;;7400859;19;20251;-66
2023/05/08 00:25:52;;;;;;;8.90;6.07;;;12.70;99.90;;;;;;7400862;19;19918;-65
2023/05/08 00:28:27;;;;;;;8.00;5.72;;;12.60;99.90;;;;;;7400738;19;19922;-65
2023/05/08 00:30:56;;;;;;;8.70;5.90;;;12.70;99.90;;;;;;7400397;19;19970;-65
2023/05/08 00:33:25;;;;;;;8.02;5.70;;;12.60;99.90;;;;;;7400859;19;20383;-65
2023/05/08 00:36:00;;;;;;;7.88;6.47;;;12.60;99.90;;;;;;7400703;19;19918;-65
2023/05/08 00:38:28;;;;;;;8.40;5.88;;;12.70;99.90;;;;;;7401081;19;19926;-65
2023/05/08 00:40:57;;;;;;;8.80;6.05;;;12.70;99.90;;;;;;7399996;19;19921;-65
2023/05/08 00:43:29;;;;;;;8.63;6.35;;;12.60;99.90;;;;;;7398303;19;19925;-65
2023/05/08 00:45:58;;;;;;;;;;;12.60;99.90;;;;;;7402408;19;19926;-65
2023/05/08 00:48:31;;;;;;;8.32;5.57;;;12.50;99.90;;;;;;7402077;19;19923;-65
2023/05/08 00:51:02;;;;;;;8.50;6.10;;;12.50;99.90;;;;;;7400121;19;19927;-65
2023/05/08 00:53:34;;;;;;;8.55;5.90;;;12.40;99.90;;;;;;7398921;19;19926;-65
2023/05/08 00:56:03;;;;;;;8.85;6.68;;;12.50;99.90;;;;;;7399617;19;19933;-65
2023/05/08 00:58:35;;;;;;;10.75;6.32;;;12.50;99.90;;;;;;7399496;19;19919;-65
2023/05/08 01:01:04;;;;;;;9.35;6.20;;;12.50;99.90;;;;;;7399150;19;19944;-65
2023/05/08 01:03:35;;;;;;;8.43;6.28;;;12.60;99.90;;;;;;7399437;19;19915;-65
2023/05/08 01:06:04;;;;;;;9.38;6.25;;;12.40;99.90;;;;;;7399634;19;19915;-65
2023/05/08 01:08:33;;;;;;;6.90;6.18;;;12.40;99.90;;;;;;7400012;19;19990;-66
2023/05/08 01:11:11;;;;;;;10.15;6.47;;;12.40;99.90;;;;;;7398879;19;19937;-66
2023/05/08 01:13:53;;;;;;;8.73;6.10;;;12.40;99.90;;;;;;7399877;19;19921;-66
2023/05/08 01:16:33;;;;;;;8.63;6.10;;;12.40;99.90;;;;;;7398443;19;19946;-66
2023/05/08 01:19:09;;;;;;;8.68;6.60;;;12.40;99.90;;;;;;7399119;19;19926;-66
2023/05/08 01:21:44;;;;;;;9.57;6.13;;;12.20;99.90;;;;;;7404423;19;19937;-66
2023/05/08 01:24:43;;;;;;;9.55;6.20;;;12.20;99.90;;;;;;7401275;19;19945;-66
2023/05/08 01:27:36;;;;;;;10.52;6.50;;;12.20;99.90;;;;;;7402846;19;19945;-66
2023/05/08 01:30:35;;;;;;;8.63;6.40;;;12.10;99.90;;;;;;7404710;19;19928;-66
2023/05/08 01:33:14;;;;;;;8.93;6.28;;;12.00;99.90;;;;;;7405838;19;20300;-66
2023/05/08 01:35:49;;;;;;;12.32;6.30;;;12.00;99.90;;;;;;7404278;19;19919;-66
2023/05/08 01:38:26;;;;;;;8.98;6.50;;;12.10;99.90;;;;;;7404125;19;20259;-66
2023/05/08 01:41:02;;;;;;;10.05;6.38;;;11.80;99.90;;;;;;7405776;19;19920;-67
2023/05/08 01:43:34;;;;;;;8.75;6.38;;;11.90;99.90;;;;;;7405641;19;19942;-66
2023/05/08 01:46:08;;;;;;;8.27;6.03;;;11.90;99.90;;;;;;7406190;19;19922;-66
2023/05/08 01:48:46;;;;;;;8.85;6.38;;;11.80;99.90;;;;;;7404568;19;20333;-67
2023/05/08 01:51:18;;;;;;;;;;;11.70;99.90;;;;;;7406274;19;19930;-67
2023/05/08 01:53:51;;;;;;;8.95;6.32;;;11.70;99.90;;;;;;7405036;19;19922;-66
2023/05/08 01:56:24;;;;;;;7.78;6.05;;;11.60;99.90;;;;;;7405521;19;19911;-66
2023/05/08 01:58:55;;;;;;;8.75;6.00;;;11.70;99.90;;;;;;7404294;19;19944;-66
2023/05/08 02:01:28;;;;;;;8.82;5.72;;;11.70;99.90;;;;;;7405151;19;19910;-66
2023/05/08 02:04:01;;;;;;;8.05;6.00;;;11.70;99.90;;;;;;7403587;19;19939;-66
2023/05/08 02:06:32;;;;;;;9.43;6.07;;;11.70;99.90;;;;;;7406084;19;19922;-66
2023/05/08 02:09:02;;;;;;;8.80;5.97;;;11.60;99.90;;;;;;7403763;19;19922;-66
2023/05/08 02:11:33;;;;;;;7.55;5.57;;;11.60;99.90;;;;;;7404347;19;19914;-66
2023/05/08 02:14:03;;;;;;;9.90;6.53;;;11.40;99.90;;;;;;7403897;19;19949;-66
2023/05/08 02:16:33;;;;;;;9.10;6.38;;;11.50;99.90;;;;;;7404605;19;19919;-66
2023/05/08 02:19:06;;;;;;;9.80;6.13;;;11.40;99.90;;;;;;7403568;19;19919;-66
2023/05/08 02:21:37;;;;;;;8.77;5.90;;;11.50;99.90;;;;;;7404655;19;19929;-66
2023/05/08 02:24:07;;;;;;;;;;;11.40;99.90;;;;;;7405282;19;19921;-66
2023/05/08 02:26:37;;;;;;;9.07;6.18;;;11.50;99.90;;;;;;7402966;19;19923;-66
2023/05/08 02:29:06;;;;;;;7.95;5.68;;;11.50;99.90;;;;;;7403629;19;19919;-66
2023/05/08 02:31:35;;;;;;;7.22;5.57;;;11.40;99.90;;;;;;7403307;19;19937;-66
2023/05/08 02:34:09;;;;;;;9.82;5.82;;;11.50;99.90;;;;;;7402836;19;19926;-66
2023/05/08 02:36:39;;;;;;;10.38;6.35;;;11.30;99.90;;;;;;7403033;19;19923;-66
2023/05/08 02:39:09;;;;;;;10.55;6.43;;;11.20;99.90;;;;;;7402523;19;19922;-66
2023/05/08 02:41:40;;;;;;;8.30;5.95;;;11.30;99.90;;;;;;7403420;19;19941;-66
2023/05/08 02:44:10;;;;;;;6.95;5.53;;;11.40;99.90;;;;;;7402186;19;19924;-66
2023/05/08 02:46:47;;;;;;;8.00;5.82;;;11.30;99.90;;;;;;7403433;19;19918;-66
2023/05/08 02:49:29;;;;;;;8.35;5.82;;;11.30;99.90;;;;;;7404469;19;19953;-66
2023/05/08 02:52:06;;;;;;;9.45;6.82;;;11.30;99.90;;;;;;7402502;19;19977;-66
2023/05/08 02:54:42;;;;;;;8.20;5.90;;;11.20;99.90;;;;;;7402051;19;19923;-66
2023/05/08 02:57:20;;;;;;;8.27;5.63;;;11.00;99.90;;;;;;7404083;19;20359;-66
2023/05/08 03:00:01;;;;;;;8.82;6.15;;;11.20;99.90;;;;;;7405299;19;19923;-66
2023/05/08 03:02:36;;;;;;;9.63;6.00;;;11.10;99.90;;;;;;7402529;19;19926;-66
2023/05/08 03:05:15;;;;;;;8.50;5.82;;;11.10;99.90;;;;;;7405194;19;19918;-66
2023/05/08 03:07:45;;;;;;;10.75;6.20;;;11.00;99.90;;;;;;7404307;19;20252;-66
2023/05/08 03:10:16;;;;;;;7.82;5.70;;;11.10;99.90;;;;;;7403416;19;19922;-66
2023/05/08 03:12:48;;;;;;;9.57;6.18;;;10.90;99.90;;;;;;7403487;19;19926;-67
2023/05/08 03:15:25;;;;;;;7.65;5.68;;;10.90;99.90;;;;;;7402577;19;19929;-66
2023/05/08 03:17:57;;;;;;;8.52;6.13;;;10.90;99.90;;;;;;7403861;19;19930;-66
2023/05/08 03:20:32;;;;;;;11.02;5.53;;;10.90;99.90;;;;;;7401618;19;19918;-66
2023/05/08 03:23:04;;;;;;;8.90;5.55;;;10.80;99.90;;;;;;7400959;19;20347;-66
2023/05/08 03:25:37;;;;;;;8.25;6.00;;;10.80;99.90;;;;;;7402529;19;19918;-66
2023/05/08 03:28:07;;;;;;;8.13;5.55;;;10.80;99.90;;;;;;7401227;19;19925;-66
2023/05/08 03:30:38;;;;;;;9.98;6.25;;;10.80;99.90;;;;;;7401231;19;19925;-66
2023/05/08 03:33:08;;;;;;;7.47;5.38;;;10.80;99.90;;;;;;7401300;19;19925;-66
2023/05/08 03:35:41;;;;;;;8.88;5.88;;;10.80;99.90;;;;;;7400903;19;19922;-66
2023/05/08 03:38:10;;;;;;;7.18;5.88;;;10.80;99.90;;;;;;7403004;19;19926;-66
2023/05/08 03:40:41;;;;;;;7.97;5.35;;;10.70;99.90;;;;;;7400669;19;19927;-66
2023/05/08 03:43:11;;;;;;;8.73;6.18;;;10.60;99.90;;;;;;7395870;19;20367;-67
2023/05/08 03:45:41;;;;;;;9.18;6.15;;;10.60;99.90;;;;;;7400882;19;19918;-66
2023/05/08 03:48:11;;;;;;;8.23;5.95;;;10.70;99.90;;;;;;7403961;19;19918;-66
2023/05/08 03:50:43;;;;;;;9.48;6.05;;;10.50;99.90;;;;;;7400471;19;20263;-66
2023/05/08 03:53:12;;;;;;;8.93;6.20;;;10.60;99.90;;;;;;7400455;19;19922;-66
2023/05/08 03:55:41;;;;;;;9.45;6.40;;;10.50;99.90;;;;;;7400929;19;19922;-66
2023/05/08 03:58:19;;;;;;;7.85;5.80;;;10.60;99.90;;;;;;7400110;19;19926;-66
2023/05/08 04:01:00;;;;;;;9.38;6.13;;;10.60;99.90;;;;;;7400857;19;19926;-66
2023/05/08 04:03:38;;;;;;;10.88;6.65;;;10.70;99.90;;;;;;7397420;19;19926;-66
2023/05/08 04:06:16;;;;;;;8.55;5.97;;;10.40;99.90;;;;;;7399713;19;19935;-66
2023/05/08 04:08:53;;;;;;;10.73;6.90;;;10.50;99.90;;;;;;7400740;19;19927;-65
2023/05/08 04:11:32;;;;;;;8.23;6.03;;;10.40;99.90;;;;;;7401120;19;19919;-65
2023/05/08 04:14:05;;;;;;;9.60;6.57;;;10.40;99.90;;;;;;7399251;19;20339;-65
2023/05/08 04:16:40;;;;;;;7.60;5.70;;;10.50;99.90;;;;;;7400843;19;20268;-65
2023/05/08 04:19:12;;;;;;;9.32;6.03;;;10.60;99.90;;;;;;7399487;19;19922;-65
2023/05/08 04:21:46;;;;;;;8.15;5.85;;;10.40;99.90;;;;;;7398436;19;19928;-66
2023/05/08 04:24:18;;;;;;;8.52;6.28;;;10.50;99.90;;;;;;7395908;19;19933;-66
2023/05/08 04:26:48;;;;;;;9.70;5.97;;;10.50;99.90;;;;;;7399774;19;19933;-66
2023/05/08 04:29:17;;;;;;;9.02;5.97;;;10.50;99.90;;;;;;7400293;19;19922;-66
2023/05/08 04:31:47;;;;;;;9.10;6.05;;;10.40;99.90;;;;;;7400002;19;20022;-65
2023/05/08 04:34:16;;;;;;;9.15;6.43;;;10.40;99.90;;;;;;7398858;19;20786;-66
2023/05/08 04:36:49;;;;;;;9.52;6.38;;;10.40;99.90;;;;;;7400991;19;19918;-66
2023/05/08 04:39:18;;;;;;;8.27;6.03;;;11.80;99.90;;;;;;7401792;19;20292;-66
2023/05/08 04:41:47;;;;;;;9.05;6.20;;;10.40;99.90;;;;;;7400938;19;19918;-66
2023/05/08 04:44:16;;;;;;;9.50;6.90;;;10.40;99.90;;;;;;7396750;19;19959;-66
2023/05/08 04:46:45;;;;;;;8.82;6.15;;;10.30;99.90;;;;;;7400671;19;20359;-66
2023/05/08 04:49:14;;;;;;;10.35;6.28;;;10.30;99.90;;;;;;7400491;19;20350;-66
2023/05/08 04:51:43;;;;;;;8.93;5.90;;;10.30;99.90;;;;;;7399505;19;19926;-66
2023/05/08 04:54:14;;;;;;;8.77;6.18;;;10.30;99.90;;;;;;7400073;19;19938;-66
2023/05/08 04:56:43;;;;;;;10.10;7.32;;;10.30;99.90;;;;;;7407274;19;19918;-66
2023/05/08 04:59:13;;;;;;;9.95;6.72;;;10.30;99.90;;;;;;7406909;19;19937;-66
2023/05/08 05:01:42;;;;;;;9.45;6.13;;;10.30;99.90;;;;;;7403671;19;19945;-66
2023/05/08 05:04:11;;;;;;;9.63;6.15;;;10.30;99.90;;;;;;7404028;19;19930;-65
2023/05/08 05:06:39;;;;;;;11.05;7.20;;;10.30;99.90;;;;;;7407013;19;19918;-66
2023/05/08 05:09:09;;;;;;;7.95;6.05;;;10.10;99.90;;;;;;7404104;19;20268;-66
2023/05/08 05:11:40;;;;;;;10.02;6.07;;;10.30;99.90;;;;;;7407423;19;19922;-66
2023/05/08 05:14:09;;;;;;;9.43;6.57;;;10.30;99.90;;;;;;7403931;19;19922;-66
2023/05/08 05:16:38;;;;;;;9.82;7.07;;;10.50;99.90;;;;;;7405679;19;19922;-66
2023/05/08 05:19:07;;;;;;;12.25;6.40;;;10.30;99.90;;;;;;7405647;19;19926;-66
2023/05/08 05:21:36;;;;;;;10.60;7.10;;;10.50;99.90;;;;;;7404821;19;20284;-66
2023/05/08 05:24:06;;;;;;;9.38;7.03;;;10.40;99.90;;;;;;7403056;19;20232;-65
2023/05/08 05:26:36;;;;;;;10.23;7.00;;;10.50;99.90;;;;;;7407308;19;19978;-66
2023/05/08 05:29:08;;;;;;;9.93;6.93;;;10.50;99.90;;;;;;7404276;19;19929;-66
2023/05/08 05:31:37;;;;;;;8.27;5.85;;;10.50;99.90;;;;;;7405291;19;20392;-66
2023/05/08 05:34:06;;;;;;;10.20;6.70;;;10.40;99.90;;;;;;7403197;19;19923;-66
2023/05/08 05:36:35;;;;;;;10.55;7.07;;;10.50;99.90;;;;;;7405187;19;19939;-66
2023/05/08 05:39:04;;;;;;;9.18;7.03;;;10.60;99.90;;;;;;7405312;19;19990;-66
2023/05/08 05:41:33;;;;;;;9.82;6.32;;;10.60;99.90;;;;;;7406958;19;19930;-66
2023/05/08 05:44:02;;;;;;;10.45;7.25;;;12.80;99.90;;;;;;7402978;19;19918;-66
2023/05/08 05:46:34;;;;;;;8.77;6.07;;;10.70;99.90;;;;;;7406838;19;20263;-66
2023/05/08 05:49:03;;;;;;;10.57;6.60;;;10.50;99.90;;;;;;7405304;19;20637;-66
2023/05/08 05:51:32;;;;;;;10.70;6.40;;;10.60;99.90;;;;;;7404323;19;19922;-65
2023/05/08 05:54:01;;;;;;;13.10;7.38;;;10.40;99.90;;;;;;7404141;19;19930;-66
2023/05/08 05:56:30;;;;;;;14.40;8.82;;;10.60;99.90;;;;;;7403785;19;19929;-66
2023/05/08 05:58:58;;;;;;;20.33;8.68;;;10.70;99.90;;;;;;7405043;19;19918;-66
2023/05/08 06:01:27;;;;;;;25.17;9.77;;;10.60;99.90;;;;;;7407057;19;19922;-67
2023/05/08 06:03:59;;;;;;;11.30;7.38;;;10.70;99.90;;;;;;7401240;19;19922;-66
2023/05/08 06:06:28;;;;;;;11.70;7.40;;;10.70;99.90;;;;;;7403732;19;19937;-66
2023/05/08 06:08:57;;;;;;;11.57;6.75;;;10.80;99.90;;;;;;7404509;19;20075;-66
2023/05/08 06:11:26;;;;;;;10.30;7.15;;;10.80;99.90;;;;;;7405068;19;19922;-66
2023/05/08 06:13:55;;;;;;;10.63;7.13;;;10.80;99.90;;;;;;7402824;19;19927;-66
2023/05/08 06:16:24;;;;;;;10.15;7.47;;;10.90;99.90;;;;;;7405071;19;19927;-66
2023/05/08 06:18:53;;;;;;;9.30;6.10;;;10.80;99.90;;;;;;7401911;19;19923;-66
2023/05/08 06:21:25;;;;;;;10.07;7.38;;;10.70;99.90;;;;;;7403430;19;19926;-66
2023/05/08 06:23:54;;;;;;;11.73;6.75;;;10.80;99.90;;;;;;7399734;19;19918;-66
2023/05/08 06:26:25;;;;;;;9.65;7.07;;;10.90;99.90;;;;;;7399067;19;19929;-66
2023/05/08 06:28:54;;;;;;;9.82;6.57;;;10.80;99.90;;;;;;7400387;19;19929;-65
2023/05/08 06:31:23;;;;;;;8.90;6.22;;;10.90;99.90;;;;;;7400593;19;19915;-66
2023/05/08 06:33:53;;;;;;;10.20;7.35;;;10.90;99.90;;;;;;7402236;19;19929;-66
2023/05/08 06:36:26;;;;;;;10.10;6.22;;;10.90;99.90;;;;;;7398536;19;19926;-66
2023/05/08 06:38:55;;;;;;;9.65;7.20;;;11.00;99.90;;;;;;7404767;19;19952;-66
2023/05/08 06:41:23;;;;;;;9.93;7.38;;;11.10;99.90;;;;;;7403442;19;19937;-66
2023/05/08 06:43:52;;;;;;;10.88;6.47;;;11.20;99.90;;;;;;7398778;19;19926;-66
2023/05/08 06:46:21;;;;;;;9.57;6.85;;;11.30;99.90;;;;;;7404768;19;19926;-66
2023/05/08 06:48:50;;;;;;;9.35;6.38;;;11.30;99.90;;;;;;7403270;19;19925;-66
2023/05/08 06:51:21;;;;;;;10.93;6.97;;;11.30;99.90;;;;;;7397679;19;19925;-66
2023/05/08 06:53:53;;;;;;;12.73;7.57;;;11.50;99.90;;;;;;7402424;19;19923;-66
2023/05/08 06:56:23;;;;;;;11.15;7.35;;;11.40;99.90;;;;;;7401301;19;19931;-66
2023/05/08 06:58:52;;;;;;;10.25;6.63;;;11.50;99.90;;;;;;7399638;19;19940;-66
2023/05/08 07:01:21;;;;;;;8.98;7.03;;;11.50;99.90;;;;;;7401246;19;19941;-66
2023/05/08 07:03:50;;;;;;;9.60;7.05;;;11.50;99.90;;;;;;7403172;19;19921;-66
2023/05/08 07:06:19;;;;;;;9.23;6.50;;;11.80;99.90;;;;;;7403368;19;19939;-66
2023/05/08 07:08:48;;;;;;;9.38;7.18;;;11.90;99.90;;;;;;7401182;19;19922;-66
2023/05/08 07:11:19;;;;;;;9.60;7.40;;;11.80;99.90;;;;;;7401783;19;19930;-66
2023/05/08 07:13:48;;;;;;;11.70;7.82;;;11.90;99.90;;;;;;7402715;19;20364;-66
2023/05/08 07:16:17;;;;;;;9.57;6.15;;;11.90;99.90;;;;;;7398593;19;19933;-66
2023/05/08 07:18:46;;;;;;;9.95;6.35;;;12.00;99.90;;;;;;7400745;19;19926;-66
2023/05/08 07:21:17;;;;;;;10.18;7.50;;;12.00;99.90;;;;;;7399435;19;20237;-66
2023/05/08 07:23:46;;;;;;;9.77;6.80;;;12.30;99.90;;;;;;7397365;19;19922;-67
2023/05/08 07:26:15;;;;;;;9.88;7.35;;;12.30;99.90;;;;;;7399947;19;19930;-66
2023/05/08 07:28:47;;;;;;;9.40;6.43;;;12.40;99.90;;;;;;7400155;19;20351;-66
2023/05/08 07:31:16;;;;;;;9.32;6.90;;;12.40;99.90;;;;;;7397395;19;19925;-66
2023/05/08 07:33:45;;;;;;;9.45;6.63;;;12.60;99.90;;;;;;7402312;19;19926;-66
2023/05/08 07:36:14;;;;;;;9.40;6.88;;;12.70;99.90;;;;;;7401638;19;19922;-67
2023/05/08 07:38:43;;;;;;;10.88;6.97;;;12.60;99.90;;;;;;7401422;19;19922;-66
2023/05/08 07:41:12;;;;;;;9.63;6.55;;;12.80;99.90;;;;;;7402638;19;19923;-66
2023/05/08 07:43:42;;;;;;;9.30;7.05;;;13.00;99.90;;;;;;7400269;19;19982;-66
2023/05/08 07:46:18;;;;;;;10.30;7.35;;;12.90;99.90;;;;;;7403397;19;19919;-66
2023/05/08 07:48:47;;;;;;;9.90;7.25;;;13.20;99.90;;;;;;7402442;19;20344;-66
2023/05/08 07:51:16;;;;;;;11.55;6.88;;;13.30;99.90;;;;;;7402042;19;19926;-66
2023/05/08 07:53:47;;;;;;;9.50;7.13;;;13.40;99.90;;;;;;7402163;19;19928;-66
2023/05/08 07:56:16;;;;;;;8.77;6.97;;;13.40;99.90;;;;;;7402174;19;20365;-66
2023/05/08 07:58:46;;;;;;;10.70;7.57;;;13.40;99.90;;;;;;7402187;19;19922;-66
2023/05/08 08:01:18;;;;;;;10.35;6.80;;;13.40;99.90;;;;;;7401755;19;19958;-66
2023/05/08 08:03:47;;;;;;;9.00;7.05;;;13.70;99.90;;;;;;7403372;19;19996;-66
2023/05/08 08:06:17;;;;;;;9.77;7.47;;;13.60;99.90;;;;;;7401360;19;19937;-66
2023/05/08 08:08:46;;;;;;;10.25;7.22;;;13.50;99.90;;;;;;7401852;19;19917;-66
2023/05/08 08:11:15;;;;;;;10.73;7.13;;;13.40;99.90;;;;;;7400151;19;19926;-67
2023/05/08 08:13:44;;;;;;;9.00;7.03;;;13.60;99.90;;;;;;7401476;19;19943;-66
2023/05/08 08:16:12;;;;;;;9.65;6.80;;;13.60;99.90;;;;;;7402598;19;19919;-66
2023/05/08 08:18:44;;;;;;;8.23;6.75;;;13.50;99.90;;;;;;7399709;19;19934;-66
2023/05/08 08:21:13;;;;;;;9.35;7.07;;;13.30;99.90;;;;;;7400815;19;19918;-66
2023/05/08 08:23:43;;;;;;;9.07;6.93;;;13.50;99.90;;;;;;7398546;19;19941;-66
2023/05/08 08:26:12;;;;;;;10.57;8.05;;;13.60;99.90;;;;;;7396491;19;19934;-66
2023/05/08 08:28:42;;;;;;;13.60;7.70;;;13.50;99.90;;;;;;7398420;19;19922;-66
2023/05/08 08:31:11;;;;;;;8.68;6.95;;;13.70;99.90;;;;;;7397800;19;19922;-66
2023/05/08 08:33:40;;;;;;;9.38;7.28;;;13.70;99.90;;;;;;7398930;19;19919;-67
2023/05/08 08:36:18;;;;;;;12.25;7.63;;;13.60;99.90;;;;;;7398530;19;19922;-67
2023/05/08 08:38:46;;;;;;;10.75;7.18;;;13.60;99.90;;;;;;7399591;19;19941;-66
2023/05/08 08:41:16;;;;;;;11.80;7.38;;;13.80;99.90;;;;;;7400554;19;19932;-66
2023/05/08 08:43:45;;;;;;;9.20;7.40;;;13.80;99.90;;;;;;7399560;19;19947;-66
2023/05/08 08:46:16;;;;;;;10.60;8.43;;;13.90;99.90;;;;;;7399164;19;19922;-66
2023/05/08 08:48:47;;;;;;;10.77;7.93;;;14.10;99.90;;;;;;7399606;19;19922;-66
2023/05/08 08:51:27;;;;;;;9.48;7.60;;;14.20;99.90;;;;;;7400913;19;20019;-66
2023/05/08 08:54:04;;;;;;;11.63;7.80;;;14.30;99.90;;;;;;7399830;19;20378;-66
2023/05/08 08:56:34;;;;;;;9.55;7.30;;;14.40;99.90;;;;;;7394882;19;19924;-66
2023/05/08 08:59:04;;;;;;;11.68;8.13;;;14.30;99.90;;;;;;7397121;19;19927;-66
2023/05/08 09:01:35;;;;;;;9.52;7.80;;;15.20;99.90;;;;;;7396642;19;19926;-66
2023/05/08 09:04:04;;;;;;;10.05;7.28;;;14.40;99.90;;;;;;7396796;19;20208;-66
2023/05/08 09:06:37;;;;;;;9.57;7.88;;;14.60;99.90;;;;;;7401737;19;19983;-66
2023/05/08 09:09:07;;;;;;;13.70;8.43;;;14.50;99.90;;;;;;7397613;19;19915;-66
2023/05/08 09:11:37;;;;;;;10.75;7.70;;;14.60;99.90;;;;;;7398090;19;20202;-66
2023/05/08 09:14:07;;;;;;;10.25;7.90;;;14.40;99.90;;;;;;7396608;19;19923;-66
2023/05/08 09:16:36;;;;;;;14.07;8.35;;;14.50;99.90;;;;;;7398315;19;19923;-66
2023/05/08 09:19:05;;;;;;;11.35;8.15;;;14.60;99.90;;;;;;7396891;19;19923;-66
2023/05/08 09:21:37;;;;;;;10.45;8.55;;;14.70;99.90;;;;;;7397033;19;19918;-66
2023/05/08 09:24:07;;;;;;;10.75;8.10;;;14.90;99.90;;;;;;7395992;19;19926;-66
2023/05/08 09:26:38;;;;;;;13.02;8.05;;;14.80;99.90;;;;;;7396298;19;19914;-66
2023/05/08 09:29:11;;;;;;;13.77;8.90;;;15.00;99.90;;;;;;7396292;19;19914;-66
2023/05/08 09:31:43;;;;;;;12.27;8.85;;;14.90;99.90;;;;;;7394491;19;19962;-66
2023/05/08 09:34:14;;;;;;;11.90;8.55;;;14.90;99.90;;;;;;7398431;19;19914;-67
2023/05/08 09:36:46;;;;;;;11.48;7.93;;;15.10;99.90;;;;;;7395940;19;19921;-66
2023/05/08 09:39:22;;;;;;;12.15;8.88;;;15.00;99.90;;;;;;7396393;19;19918;-66
2023/05/08 09:41:59;;;;;;;10.85;8.60;;;15.10;99.90;;;;;;7406385;19;19926;-65
2023/05/08 09:44:28;;;;;;;10.05;7.63;;;15.20;99.90;;;;;;7401381;19;20222;-66
2023/05/08 09:47:12;;;;;;;12.27;8.23;;;15.10;99.90;;;;;;7402724;19;19919;-66
2023/05/08 09:49:41;;;;;;;11.25;8.57;;;15.30;99.90;;;;;;7402078;19;19919;-65
2023/05/08 09:52:17;;;;;;;11.00;8.75;;;15.30;99.90;;;;;;7403352;19;19941;-66
2023/05/08 09:54:47;;;;;;;10.95;8.43;;;15.40;99.90;;;;;;7402489;19;20378;-67
2023/05/08 09:57:16;;;;;;;12.10;8.95;;;15.40;99.90;;;;;;7406428;19;20346;-65
2023/05/08 09:59:45;;;;;;;11.48;9.20;;;15.50;99.90;;;;;;7403729;19;19919;-68
2023/05/08 10:02:15;;;;;;;12.45;8.70;;;15.60;99.90;;;;;;7395876;19;19918;-69
2023/05/08 10:04:44;;;;;;;11.25;8.90;;;15.50;99.90;;;;;;7403222;19;19935;-68
2023/05/08 10:07:15;;;;;;;11.07;9.05;;;15.40;99.90;;;;;;7402824;19;20251;-69
2023/05/08 10:10:00;;;;;;;12.60;9.75;;;15.70;99.90;;;;;;7404175;19;19926;-68
2023/05/08 10:12:30;;;;;;;13.00;9.43;;;15.90;99.90;;;;;;7402297;19;19915;-68
2023/05/08 10:14:59;;;;;;;11.75;9.27;;;15.90;99.90;;;;;;7404289;19;20408;-68
2023/05/08 10:17:33;;;;;;;11.23;8.95;;;16.00;99.90;;;;;;7404921;19;19982;-68
2023/05/08 10:20:08;;;;;;;12.13;8.93;;;16.10;99.90;;;;;;7404872;19;19952;-68
2023/05/08 10:22:44;;;;;;;12.05;9.27;;;16.20;99.90;;;;;;7404734;19;19961;-68
2023/05/08 10:25:18;;;;;;;12.77;9.60;;;16.30;99.90;;;;;;7399416;19;19929;-67
2023/05/08 10:27:54;;;;;;;12.65;8.98;;;16.50;99.90;;;;;;7404975;19;19918;-67
2023/05/08 10:30:27;;;;;;;11.88;9.07;;;16.60;99.90;;;;;;7399873;19;20376;-67
2023/05/08 10:32:58;;;;;;;13.73;9.38;;;16.60;99.90;;;;;;7401217;19;19910;-67
2023/05/08 10:35:27;;;;;;;11.48;8.98;;;16.70;99.90;;;;;;7401508;19;19922;-67
2023/05/08 10:38:00;;;;;;;12.52;9.93;;;16.70;99.90;;;;;;7401023;19;19998;-67
2023/05/08 10:40:29;;;;;;;16.17;9.07;;;16.80;99.90;;;;;;7400389;19;19926;-68
2023/05/08 10:42:59;;;;;;;11.48;9.57;;;16.90;99.90;;;;;;7403435;19;19925;-67
2023/05/08 10:45:29;;;;;;;13.82;9.70;;;17.00;99.90;;;;;;7399353;19;20284;-67
2023/05/08 10:48:06;;;;;;;12.05;9.52;;;17.00;99.90;;;;;;7400557;19;20268;-67
2023/05/08 10:50:51;;;;;;;13.00;9.88;;;16.90;99.90;;;;;;7401027;19;19926;-67
2023/05/08 10:53:33;;;;;;;13.85;9.55;;;17.10;99.90;;;;;;7400293;19;19922;-67
2023/05/08 10:56:02;;;;;;;11.35;9.02;;;17.10;99.90;;;;;;7400533;19;19915;-67
2023/05/08 10:58:32;;;;;;;14.60;10.13;;;17.20;99.90;;;;;;7401234;19;20376;-67
2023/05/08 11:01:18;;;;;;;11.88;9.45;;;17.20;99.90;;;;;;7401612;19;19919;-68
2023/05/08 11:03:54;;;;;;;11.10;9.18;;;17.40;99.90;;;;;;7399502;19;19938;-67
2023/05/08 11:06:44;;;;;;;12.05;9.30;;;17.50;99.90;;;;;;7399561;19;19990;-67
2023/05/08 11:09:22;;;;;;;12.57;9.48;;;17.50;99.90;;;;;;7400405;19;19928;-67
2023/05/08 11:12:08;;;;;;;12.98;9.90;;;17.60;99.90;;;;;;7401428;19;19949;-67
2023/05/08 11:14:40;;;;;;;13.50;10.25;;;17.70;99.90;;;;;;7401847;19;19922;-67
2023/05/08 11:17:11;;;;;;;12.88;9.80;;;17.80;99.90;;;;;;7399705;19;19929;-67
2023/05/08 11:19:40;;;;;;;12.15;9.18;;;18.00;99.90;;;;;;7401596;19;19930;-67
2023/05/08 11:22:27;;;;;;;14.27;10.00;;;18.00;99.90;;;;;;7400499;19;19922;-67
2023/05/08 11:25:07;;;;;;;14.15;10.15;;;18.10;99.90;;;;;;7400157;19;20369;-67
2023/05/08 11:27:58;;;;;;;13.75;10.40;;;18.20;99.90;;;;;;7400109;19;19918;-67
2023/05/08 11:30:36;;;;;;;14.00;10.57;;;18.30;99.90;;;;;;7395007;19;19923;-67
2023/05/08 11:33:18;;;;;;;13.82;10.63;;;18.50;99.90;;;;;;7403020;19;19921;-68
2023/05/08 11:35:49;;;;;;;14.02;10.98;;;18.50;99.90;;;;;;7400425;19;20352;-68
2023/05/08 11:38:35;;;;;;;12.88;10.45;;;18.70;99.90;;;;;;7400781;19;19921;-67
2023/05/08 11:41:08;;;;;;;14.70;11.45;;;18.70;99.90;;;;;;7401733;19;19937;-68
2023/05/08 11:44:20;;;;;;;13.10;10.73;;;18.70;99.90;;;;;;7402047;19;20363;-68
2023/05/08 11:46:54;;;;;;;16.58;11.50;;;18.80;99.90;;;;;;7399127;19;20327;-69
2023/05/08 11:49:25;;;;;;;15.77;11.30;;;19.10;99.90;;;;;;7402529;19;19932;-68
2023/05/08 11:51:56;;;;;;;14.88;11.45;;;19.10;99.90;;;;;;7402284;19;19914;-68
2023/05/08 11:54:27;;;;;;;14.82;11.10;;;19.20;99.90;;;;;;7399083;19;19923;-68
2023/05/08 11:56:58;;;;;;;16.88;12.32;;;19.20;99.90;;;;;;7401099;19;20340;-68
2023/05/08 11:59:27;;;;;;;;;;;19.30;99.90;;;;;;7403444;19;20287;-68
2023/05/08 12:01:56;;;;;;;17.08;12.18;;;19.40;99.90;;;;;;7401106;19;19919;-68
2023/05/08 12:04:24;;;;;;;16.83;12.52;;;19.30;99.90;;;;;;7398142;19;19994;-69
2023/05/08 12:06:59;;;;;;;15.85;11.70;;;19.50;99.90;;;;;;7398288;19;19933;-68
2023/05/08 12:09:28;;;;;;;17.30;12.32;;;19.50;99.90;;;;;;7401181;19;20256;-68
2023/05/08 12:12:03;;;;;;;15.30;11.40;;;19.50;99.90;;;;;;7400936;19;20296;-68
2023/05/08 12:14:32;;;;;;;17.20;12.52;;;19.70;99.90;;;;;;7400043;19;19924;-68
2023/05/08 12:17:03;;;;;;;17.00;11.90;;;19.90;99.90;;;;;;7401632;19;19918;-68
2023/05/08 12:19:32;;;;;;;16.90;12.65;;;20.00;99.90;;;;;;7401714;19;19926;-68
2023/05/08 12:22:01;;;;;;;14.48;12.32;;;20.10;99.90;;;;;;7401369;19;19945;-68
2023/05/08 12:24:30;;;;;;;19.40;13.73;;;20.30;99.90;;;;;;7398554;19;20267;-68
2023/05/08 12:26:59;;;;;;;14.65;11.65;;;20.10;99.90;;;;;;7398515;19;20379;-68
2023/05/08 12:29:31;;;;;;;14.95;11.75;;;20.40;99.90;;;;;;7399987;19;20353;-68
2023/05/08 12:32:00;;;;;;;15.88;12.45;;;20.50;99.90;;;;;;7396925;19;19929;-67
2023/05/08 12:34:29;;;;;;;14.65;10.90;;;20.60;99.90;;;;;;7398953;19;20312;-67
2023/05/08 12:37:05;;;;;;;15.90;11.98;;;20.70;99.90;;;;;;7400618;19;19926;-67
2023/05/08 12:39:39;;;;;;;13.98;11.73;;;21.70;99.90;;;;;;7399906;19;19935;-67
2023/05/08 12:42:08;;;;;;;15.23;12.27;;;21.00;99.90;;;;;;7397842;19;19918;-67
2023/05/08 12:44:39;;;;;;;15.43;11.88;;;21.10;99.90;;;;;;7400344;19;20281;-67
2023/05/08 12:47:08;;;;;;;;;;;21.10;99.90;;;;;;7399044;19;20385;-67
2023/05/08 12:49:39;;;;;;;14.82;11.15;;;21.10;99.90;;;;;;7400110;19;19934;-67
2023/05/08 12:52:10;;;;;;;12.93;10.25;;;21.30;99.90;;;;;;7399617;19;19930;-67
2023/05/08 12:54:40;;;;;;;13.88;11.18;;;21.40;99.90;;;;;;7397912;19;20376;-67
2023/05/08 12:57:12;;;;;;;13.48;9.80;;;21.50;99.90;;;;;;7399158;19;19986;-67
2023/05/08 12:59:43;;;;;;;;;;;21.60;99.90;;;;;;7400395;19;19923;-67
2023/05/08 13:02:17;;;;;;;13.48;9.75;;;21.70;99.90;;;;;;7398458;19;19929;-67
2023/05/08 13:04:46;;;;;;;12.65;10.40;;;21.80;99.90;;;;;;7400145;19;19933;-67
2023/05/08 13:07:15;;;;;;;13.55;10.40;;;21.90;99.90;;;;;;7396038;19;19930;-67